sensor_id;sensor_type;location;lat;lon;timestamp;P1;durP1;ratioP1;P2;durP2;ratioP2
43803;SDS011;29430;52.924;-2.388;2024-03-08T00:04:02;21.25;;;10.95;;
43803;SDS011;29430;52.924;-2.388;2024-03-08T00:08:54;22.95;;;11.63;;
43803;SDS011;29430;52.924;-2.388;2024-03-08T00:13:47;21.83;;;10.80;;
43803;SDS011;29430;52.924;-2.388;2024-03-08T00:18:39;21.23;;;11.88;;
43803;SDS011;29430;52.924;-2.388;2024-03-08T00:23:31;20.73;;;10.95;;
43803;SDS011;29430;52.924;-2.388;2024-03-08T00:28:24;25.05;;;12.18;;
43803;SDS011;29430;52.924;-2.388;2024-03-08T00:33:18;26.00;;;11.25;;
43803;SDS011;29430;52.924;-2.388;2024-03-08T00:38:10;27.90;;;13.05;;
43803;SDS011;29430;52.924;-2.388;2024-03-08T00:43:02;26.08;;;11.63;;
43803;SDS011;29430;52.924;-2.388;2024-03-08T00:47:55;24.83;;;12.20;;
43803;SDS011;29430;52.924;-2.388;2024-03-08T00:52:46;25.05;;;12.98;;
43803;SDS011;29430;52.924;-2.388;2024-03-08T00:57:38;23.85;;;11.48;;
43803;SDS011;29430;52.924;-2.388;2024-03-08T01:02:30;25.00;;;11.07;;
43803;SDS011;29430;52.924;-2.388;2024-03-08T01:07:22;24.83;;;12.35;;
43803;SDS011;29430;52.924;-2.388;2024-03-08T01:12:13;30.42;;;14.38;;
43803;SDS011;29430;52.924;-2.388;2024-03-08T01:17:06;29.20;;;14.77;;
43803;SDS011;29430;52.924;-2.388;2024-03-08T01:21:58;26.15;;;13.20;;
43803;SDS011;29430;52.924;-2.388;2024-03-08T01:26:49;32.17;;;15.82;;
43803;SDS011;29430;52.924;-2.388;2024-03-08T01:31:41;27.92;;;14.70;;
43803;SDS011;29430;52.924;-2.388;2024-03-08T01:36:33;32.92;;;15.48;;
43803;SDS011;29430;52.924;-2.388;2024-03-08T01:41:25;33.40;;;15.30;;
43803;SDS011;29430;52.924;-2.388;2024-03-08T01:46:17;26.88;;;13.93;;
43803;SDS011;29430;52.924;-2.388;2024-03-08T01:51:13;33.83;;;16.27;;
43803;SDS011;29430;52.924;-2.388;2024-03-08T01:56:06;30.10;;;15.60;;
43803;SDS011;29430;52.924;-2.388;2024-03-08T02:00:58;29.20;;;16.20;;
43803;SDS011;29430;52.924;-2.388;2024-03-08T02:05:51;26.95;;;13.52;;
43803;SDS011;29430;52.924;-2.388;2024-03-08T02:10:46;30.05;;;15.80;;
43803;SDS011;29430;52.924;-2.388;2024-03-08T02:15:54;37.65;;;18.10;;
43803;SDS011;29430;52.924;-2.388;2024-03-08T02:20:49;33.07;;;17.20;;
43803;SDS011;29430;52.924;-2.388;2024-03-08T02:25:43;36.38;;;17.30;;
43803;SDS011;29430;52.924;-2.388;2024-03-08T02:30:34;32.13;;;16.60;;
43803;SDS011;29430;52.924;-2.388;2024-03-08T02:35:27;36.05;;;17.67;;
43803;SDS011;29430;52.924;-2.388;2024-03-08T02:40:19;30.77;;;16.05;;
43803;SDS011;29430;52.924;-2.388;2024-03-08T02:45:11;43.38;;;19.35;;
43803;SDS011;29430;52.924;-2.388;2024-03-08T02:50:03;36.92;;;17.73;;
43803;SDS011;29430;52.924;-2.388;2024-03-08T02:54:55;36.75;;;18.27;;
43803;SDS011;29430;52.924;-2.388;2024-03-08T02:59:46;41.35;;;18.75;;
43803;SDS011;29430;52.924;-2.388;2024-03-08T03:04:41;33.45;;;17.02;;
43803;SDS011;29430;52.924;-2.388;2024-03-08T03:09:33;33.83;;;17.55;;
43803;SDS011;29430;52.924;-2.388;2024-03-08T03:14:25;34.05;;;17.40;;
43803;SDS011;29430;52.924;-2.388;2024-03-08T03:19:18;31.98;;;18.10;;
43803;SDS011;29430;52.924;-2.388;2024-03-08T03:24:10;37.30;;;18.00;;
43803;SDS011;29430;52.924;-2.388;2024-03-08T03:29:02;32.05;;;16.80;;
43803;SDS011;29430;52.924;-2.388;2024-03-08T03:33:54;42.28;;;19.90;;
43803;SDS011;29430;52.924;-2.388;2024-03-08T03:38:52;38.67;;;20.55;;
43803;SDS011;29430;52.924;-2.388;2024-03-08T03:43:55;41.88;;;18.13;;
43803;SDS011;29430;52.924;-2.388;2024-03-08T03:48:47;37.97;;;21.77;;
43803;SDS011;29430;52.924;-2.388;2024-03-08T03:53:39;42.78;;;20.20;;
43803;SDS011;29430;52.924;-2.388;2024-03-08T03:58:30;39.67;;;20.58;;
43803;SDS011;29430;52.924;-2.388;2024-03-08T04:03:22;40.70;;;21.88;;
43803;SDS011;29430;52.924;-2.388;2024-03-08T04:08:14;41.75;;;20.85;;
43803;SDS011;29430;52.924;-2.388;2024-03-08T04:13:05;41.08;;;21.73;;
43803;SDS011;29430;52.924;-2.388;2024-03-08T04:17:57;47.83;;;22.38;;
43803;SDS011;29430;52.924;-2.388;2024-03-08T04:22:52;43.50;;;21.67;;
43803;SDS011;29430;52.924;-2.388;2024-03-08T04:27:43;33.55;;;17.58;;
43803;SDS011;29430;52.924;-2.388;2024-03-08T04:32:36;40.95;;;21.27;;
43803;SDS011;29430;52.924;-2.388;2024-03-08T04:37:27;46.47;;;22.42;;
43803;SDS011;29430;52.924;-2.388;2024-03-08T04:42:21;39.58;;;21.05;;
43803;SDS011;29430;52.924;-2.388;2024-03-08T04:47:13;40.90;;;18.90;;
43803;SDS011;29430;52.924;-2.388;2024-03-08T04:52:05;42.20;;;19.88;;
43803;SDS011;29430;52.924;-2.388;2024-03-08T04:56:58;39.58;;;21.15;;
43803;SDS011;29430;52.924;-2.388;2024-03-08T05:01:57;36.83;;;21.00;;
43803;SDS011;29430;52.924;-2.388;2024-03-08T05:06:48;39.40;;;20.02;;
43803;SDS011;29430;52.924;-2.388;2024-03-08T05:11:43;42.67;;;22.70;;
43803;SDS011;29430;52.924;-2.388;2024-03-08T05:16:36;37.65;;;19.63;;
43803;SDS011;29430;52.924;-2.388;2024-03-08T05:21:27;38.33;;;20.30;;
43803;SDS011;29430;52.924;-2.388;2024-03-08T05:26:20;39.33;;;20.40;;
43803;SDS011;29430;52.924;-2.388;2024-03-08T05:31:20;37.03;;;19.55;;
43803;SDS011;29430;52.924;-2.388;2024-03-08T05:36:14;37.28;;;20.42;;
43803;SDS011;29430;52.924;-2.388;2024-03-08T05:41:07;41.30;;;22.15;;
43803;SDS011;29430;52.924;-2.388;2024-03-08T05:45:59;48.00;;;24.25;;
43803;SDS011;29430;52.924;-2.388;2024-03-08T05:50:51;44.45;;;23.08;;
43803;SDS011;29430;52.924;-2.388;2024-03-08T05:55:42;47.03;;;24.10;;
43803;SDS011;29430;52.924;-2.388;2024-03-08T06:00:34;43.72;;;22.90;;
43803;SDS011;29430;52.924;-2.388;2024-03-08T06:05:27;45.60;;;24.23;;
43803;SDS011;29430;52.924;-2.388;2024-03-08T06:10:19;41.15;;;22.50;;
43803;SDS011;29430;52.924;-2.388;2024-03-08T06:15:11;44.50;;;22.00;;
43803;SDS011;29430;52.924;-2.388;2024-03-08T06:20:06;45.08;;;22.65;;
43803;SDS011;29430;52.924;-2.388;2024-03-08T06:25:01;44.30;;;23.02;;
43803;SDS011;29430;52.924;-2.388;2024-03-08T06:29:53;47.33;;;23.23;;
43803;SDS011;29430;52.924;-2.388;2024-03-08T06:34:45;44.60;;;22.80;;
43803;SDS011;29430;52.924;-2.388;2024-03-08T06:39:37;43.58;;;21.88;;
43803;SDS011;29430;52.924;-2.388;2024-03-08T06:44:29;49.45;;;23.60;;
43803;SDS011;29430;52.924;-2.388;2024-03-08T06:49:20;49.45;;;23.67;;
43803;SDS011;29430;52.924;-2.388;2024-03-08T06:54:12;50.08;;;23.38;;
43803;SDS011;29430;52.924;-2.388;2024-03-08T06:59:04;46.47;;;22.70;;
43803;SDS011;29430;52.924;-2.388;2024-03-08T07:03:56;48.97;;;22.65;;
43803;SDS011;29430;52.924;-2.388;2024-03-08T07:08:48;47.25;;;22.17;;
43803;SDS011;29430;52.924;-2.388;2024-03-08T07:13:40;45.00;;;23.27;;
43803;SDS011;29430;52.924;-2.388;2024-03-08T07:18:34;45.90;;;22.88;;
43803;SDS011;29430;52.924;-2.388;2024-03-08T07:23:31;51.07;;;24.00;;
43803;SDS011;29430;52.924;-2.388;2024-03-08T07:28:44;57.35;;;26.67;;
43803;SDS011;29430;52.924;-2.388;2024-03-08T07:33:36;55.95;;;26.30;;
43803;SDS011;29430;52.924;-2.388;2024-03-08T07:38:29;52.22;;;24.60;;
43803;SDS011;29430;52.924;-2.388;2024-03-08T07:43:21;48.35;;;23.83;;
43803;SDS011;29430;52.924;-2.388;2024-03-08T07:48:13;52.28;;;26.40;;
43803;SDS011;29430;52.924;-2.388;2024-03-08T07:53:06;50.15;;;23.33;;
43803;SDS011;29430;52.924;-2.388;2024-03-08T07:58:00;46.58;;;23.17;;
43803;SDS011;29430;52.924;-2.388;2024-03-08T08:02:55;45.00;;;23.55;;
43803;SDS011;29430;52.924;-2.388;2024-03-08T08:07:47;49.40;;;23.75;;
43803;SDS011;29430;52.924;-2.388;2024-03-08T08:12:42;52.50;;;23.33;;
43803;SDS011;29430;52.924;-2.388;2024-03-08T08:17:34;49.38;;;23.05;;
43803;SDS011;29430;52.924;-2.388;2024-03-08T08:22:26;46.13;;;22.92;;
43803;SDS011;29430;52.924;-2.388;2024-03-08T08:27:18;50.90;;;24.20;;
43803;SDS011;29430;52.924;-2.388;2024-03-08T08:32:10;47.67;;;23.33;;
43803;SDS011;29430;52.924;-2.388;2024-03-08T08:37:02;51.50;;;25.17;;
43803;SDS011;29430;52.924;-2.388;2024-03-08T08:41:53;50.65;;;24.10;;
43803;SDS011;29430;52.924;-2.388;2024-03-08T08:46:46;46.70;;;24.27;;
43803;SDS011;29430;52.924;-2.388;2024-03-08T08:51:38;49.85;;;24.67;;
43803;SDS011;29430;52.924;-2.388;2024-03-08T08:56:30;49.17;;;24.17;;
43803;SDS011;29430;52.924;-2.388;2024-03-08T09:01:22;45.88;;;23.38;;
43803;SDS011;29430;52.924;-2.388;2024-03-08T09:06:14;43.05;;;22.60;;
43803;SDS011;29430;52.924;-2.388;2024-03-08T09:11:06;48.05;;;22.42;;
43803;SDS011;29430;52.924;-2.388;2024-03-08T09:15:58;44.95;;;22.83;;
43803;SDS011;29430;52.924;-2.388;2024-03-08T09:20:50;44.28;;;20.63;;
43803;SDS011;29430;52.924;-2.388;2024-03-08T09:25:42;45.80;;;23.08;;
43803;SDS011;29430;52.924;-2.388;2024-03-08T09:30:38;39.55;;;21.67;;
43803;SDS011;29430;52.924;-2.388;2024-03-08T09:35:32;44.55;;;21.65;;
43803;SDS011;29430;52.924;-2.388;2024-03-08T09:40:24;37.88;;;19.63;;
43803;SDS011;29430;52.924;-2.388;2024-03-08T09:45:17;42.25;;;20.50;;
43803;SDS011;29430;52.924;-2.388;2024-03-08T09:50:11;39.70;;;19.23;;
43803;SDS011;29430;52.924;-2.388;2024-03-08T09:55:06;40.08;;;19.08;;
43803;SDS011;29430;52.924;-2.388;2024-03-08T09:59:58;34.65;;;17.55;;
43803;SDS011;29430;52.924;-2.388;2024-03-08T10:04:51;38.58;;;20.15;;
43803;SDS011;29430;52.924;-2.388;2024-03-08T10:09:45;34.00;;;18.52;;
43803;SDS011;29430;52.924;-2.388;2024-03-08T10:14:42;34.78;;;20.15;;
43803;SDS011;29430;52.924;-2.388;2024-03-08T10:19:35;36.47;;;20.92;;
43803;SDS011;29430;52.924;-2.388;2024-03-08T10:24:29;36.97;;;20.00;;
43803;SDS011;29430;52.924;-2.388;2024-03-08T10:29:22;40.95;;;21.38;;
43803;SDS011;29430;52.924;-2.388;2024-03-08T10:34:16;40.17;;;19.45;;
43803;SDS011;29430;52.924;-2.388;2024-03-08T10:39:19;37.28;;;18.67;;
43803;SDS011;29430;52.924;-2.388;2024-03-08T10:49:17;33.38;;;16.73;;
43803;SDS011;29430;52.924;-2.388;2024-03-08T10:54:14;30.33;;;17.00;;
43803;SDS011;29430;52.924;-2.388;2024-03-08T10:59:08;30.23;;;18.02;;
43803;SDS011;29430;52.924;-2.388;2024-03-08T11:04:04;34.35;;;18.27;;
43803;SDS011;29430;52.924;-2.388;2024-03-08T11:08:57;33.28;;;17.35;;
43803;SDS011;29430;52.924;-2.388;2024-03-08T11:13:49;30.50;;;17.15;;
43803;SDS011;29430;52.924;-2.388;2024-03-08T11:18:43;30.63;;;17.23;;
43803;SDS011;29430;52.924;-2.388;2024-03-08T11:23:35;30.75;;;17.13;;
43803;SDS011;29430;52.924;-2.388;2024-03-08T11:28:27;34.47;;;17.58;;
43803;SDS011;29430;52.924;-2.388;2024-03-08T11:33:18;31.60;;;17.92;;
43803;SDS011;29430;52.924;-2.388;2024-03-08T11:38:10;33.78;;;18.58;;
43803;SDS011;29430;52.924;-2.388;2024-03-08T11:43:02;30.83;;;17.80;;
43803;SDS011;29430;52.924;-2.388;2024-03-08T11:47:59;28.00;;;16.05;;
43803;SDS011;29430;52.924;-2.388;2024-03-08T11:52:51;30.15;;;16.92;;
43803;SDS011;29430;52.924;-2.388;2024-03-08T11:57:42;27.52;;;16.83;;
43803;SDS011;29430;52.924;-2.388;2024-03-08T12:02:35;31.45;;;18.45;;
43803;SDS011;29430;52.924;-2.388;2024-03-08T12:07:32;27.70;;;15.32;;
43803;SDS011;29430;52.924;-2.388;2024-03-08T12:12:24;28.83;;;16.13;;
43803;SDS011;29430;52.924;-2.388;2024-03-08T12:17:16;28.73;;;15.48;;
43803;SDS011;29430;52.924;-2.388;2024-03-08T12:22:08;26.90;;;15.77;;
43803;SDS011;29430;52.924;-2.388;2024-03-08T12:27:01;25.45;;;14.23;;
43803;SDS011;29430;52.924;-2.388;2024-03-08T12:32:09;25.65;;;14.80;;
43803;SDS011;29430;52.924;-2.388;2024-03-08T12:37:02;29.52;;;14.32;;
43803;SDS011;29430;52.924;-2.388;2024-03-08T12:41:58;25.60;;;14.23;;
43803;SDS011;29430;52.924;-2.388;2024-03-08T12:46:50;28.77;;;14.70;;
43803;SDS011;29430;52.924;-2.388;2024-03-08T12:51:44;27.02;;;14.32;;
43803;SDS011;29430;52.924;-2.388;2024-03-08T12:56:36;28.88;;;15.20;;
43803;SDS011;29430;52.924;-2.388;2024-03-08T13:01:31;28.65;;;14.13;;
43803;SDS011;29430;52.924;-2.388;2024-03-08T13:06:24;33.05;;;15.63;;
43803;SDS011;29430;52.924;-2.388;2024-03-08T13:11:16;24.23;;;14.13;;
43803;SDS011;29430;52.924;-2.388;2024-03-08T13:16:08;25.13;;;14.40;;
43803;SDS011;29430;52.924;-2.388;2024-03-08T13:21:00;24.63;;;14.73;;
43803;SDS011;29430;52.924;-2.388;2024-03-08T13:25:58;29.67;;;13.25;;
43803;SDS011;29430;52.924;-2.388;2024-03-08T13:30:50;30.55;;;16.10;;
43803;SDS011;29430;52.924;-2.388;2024-03-08T13:35:47;30.58;;;15.27;;
43803;SDS011;29430;52.924;-2.388;2024-03-08T13:40:42;22.63;;;13.38;;
43803;SDS011;29430;52.924;-2.388;2024-03-08T13:45:34;25.95;;;14.70;;
43803;SDS011;29430;52.924;-2.388;2024-03-08T13:50:29;23.67;;;15.15;;
43803;SDS011;29430;52.924;-2.388;2024-03-08T13:55:21;25.55;;;14.20;;
43803;SDS011;29430;52.924;-2.388;2024-03-08T14:00:14;23.95;;;14.02;;
43803;SDS011;29430;52.924;-2.388;2024-03-08T14:05:06;23.30;;;13.77;;
43803;SDS011;29430;52.924;-2.388;2024-03-08T14:10:00;24.73;;;14.90;;
43803;SDS011;29430;52.924;-2.388;2024-03-08T14:14:52;20.38;;;12.93;;
43803;SDS011;29430;52.924;-2.388;2024-03-08T14:19:44;24.88;;;14.45;;
43803;SDS011;29430;52.924;-2.388;2024-03-08T14:24:36;25.60;;;13.90;;
43803;SDS011;29430;52.924;-2.388;2024-03-08T14:29:28;26.17;;;14.20;;
43803;SDS011;29430;52.924;-2.388;2024-03-08T14:34:23;28.95;;;15.50;;
43803;SDS011;29430;52.924;-2.388;2024-03-08T14:39:21;25.83;;;14.73;;
43803;SDS011;29430;52.924;-2.388;2024-03-08T14:44:17;26.98;;;15.30;;
43803;SDS011;29430;52.924;-2.388;2024-03-08T14:49:10;23.85;;;14.93;;
43803;SDS011;29430;52.924;-2.388;2024-03-08T14:54:02;25.05;;;14.32;;
43803;SDS011;29430;52.924;-2.388;2024-03-08T14:58:57;27.25;;;16.00;;
43803;SDS011;29430;52.924;-2.388;2024-03-08T15:03:51;22.60;;;13.05;;
43803;SDS011;29430;52.924;-2.388;2024-03-08T15:08:42;27.83;;;14.65;;
43803;SDS011;29430;52.924;-2.388;2024-03-08T15:13:34;28.58;;;15.25;;
43803;SDS011;29430;52.924;-2.388;2024-03-08T15:18:33;25.60;;;15.43;;
43803;SDS011;29430;52.924;-2.388;2024-03-08T15:23:27;26.50;;;16.50;;
43803;SDS011;29430;52.924;-2.388;2024-03-08T15:28:18;25.20;;;15.80;;
43803;SDS011;29430;52.924;-2.388;2024-03-08T15:33:18;30.30;;;16.38;;
43803;SDS011;29430;52.924;-2.388;2024-03-08T15:38:15;28.30;;;17.20;;
43803;SDS011;29430;52.924;-2.388;2024-03-08T15:43:10;31.00;;;17.30;;
43803;SDS011;29430;52.924;-2.388;2024-03-08T15:48:02;26.67;;;16.05;;
43803;SDS011;29430;52.924;-2.388;2024-03-08T15:52:57;27.95;;;17.52;;
43803;SDS011;29430;52.924;-2.388;2024-03-08T15:57:51;29.15;;;16.63;;
43803;SDS011;29430;52.924;-2.388;2024-03-08T16:02:42;31.15;;;17.25;;
43803;SDS011;29430;52.924;-2.388;2024-03-08T16:07:34;27.88;;;16.45;;
43803;SDS011;29430;52.924;-2.388;2024-03-08T16:12:26;29.08;;;17.60;;
43803;SDS011;29430;52.924;-2.388;2024-03-08T16:17:20;27.75;;;15.98;;
43803;SDS011;29430;52.924;-2.388;2024-03-08T16:22:11;30.75;;;16.65;;
43803;SDS011;29430;52.924;-2.388;2024-03-08T16:27:03;30.33;;;16.63;;
43803;SDS011;29430;52.924;-2.388;2024-03-08T16:31:56;31.08;;;16.60;;
43803;SDS011;29430;52.924;-2.388;2024-03-08T16:36:49;31.02;;;17.75;;
43803;SDS011;29430;52.924;-2.388;2024-03-08T16:41:43;27.58;;;16.25;;
43803;SDS011;29430;52.924;-2.388;2024-03-08T16:46:34;28.38;;;17.13;;
43803;SDS011;29430;52.924;-2.388;2024-03-08T16:51:31;28.58;;;14.93;;
43803;SDS011;29430;52.924;-2.388;2024-03-08T16:56:23;31.58;;;15.38;;
43803;SDS011;29430;52.924;-2.388;2024-03-08T17:01:16;30.88;;;17.35;;
43803;SDS011;29430;52.924;-2.388;2024-03-08T17:06:07;28.27;;;16.85;;
43803;SDS011;29430;52.924;-2.388;2024-03-08T17:11:00;35.28;;;18.63;;
43803;SDS011;29430;52.924;-2.388;2024-03-08T17:15:52;27.77;;;16.00;;
43803;SDS011;29430;52.924;-2.388;2024-03-08T17:20:44;34.05;;;16.92;;
43803;SDS011;29430;52.924;-2.388;2024-03-08T17:25:36;32.50;;;17.10;;
43803;SDS011;29430;52.924;-2.388;2024-03-08T17:30:30;31.30;;;18.25;;
43803;SDS011;29430;52.924;-2.388;2024-03-08T17:35:24;32.92;;;16.73;;
43803;SDS011;29430;52.924;-2.388;2024-03-08T17:40:20;29.08;;;17.10;;
43803;SDS011;29430;52.924;-2.388;2024-03-08T17:45:13;32.67;;;17.27;;
43803;SDS011;29430;52.924;-2.388;2024-03-08T17:50:06;28.27;;;13.85;;
43803;SDS011;29430;52.924;-2.388;2024-03-08T17:55:01;28.98;;;14.68;;
43803;SDS011;29430;52.924;-2.388;2024-03-08T17:59:55;41.70;;;16.88;;
43803;SDS011;29430;52.924;-2.388;2024-03-08T18:04:47;31.88;;;16.90;;
43803;SDS011;29430;52.924;-2.388;2024-03-08T18:09:40;29.67;;;15.52;;
43803;SDS011;29430;52.924;-2.388;2024-03-08T18:14:31;27.27;;;15.05;;
43803;SDS011;29430;52.924;-2.388;2024-03-08T18:19:23;30.30;;;15.25;;
43803;SDS011;29430;52.924;-2.388;2024-03-08T18:24:15;33.83;;;15.95;;
43803;SDS011;29430;52.924;-2.388;2024-03-08T18:29:09;32.55;;;13.85;;
43803;SDS011;29430;52.924;-2.388;2024-03-08T18:34:01;29.42;;;15.07;;
43803;SDS011;29430;52.924;-2.388;2024-03-08T18:38:54;31.00;;;15.48;;
43803;SDS011;29430;52.924;-2.388;2024-03-08T18:43:45;27.70;;;15.23;;
43803;SDS011;29430;52.924;-2.388;2024-03-08T18:48:37;28.42;;;14.43;;
43803;SDS011;29430;52.924;-2.388;2024-03-08T18:53:30;31.75;;;15.55;;
43803;SDS011;29430;52.924;-2.388;2024-03-08T18:58:22;32.65;;;16.48;;
43803;SDS011;29430;52.924;-2.388;2024-03-08T19:03:25;35.15;;;16.30;;
43803;SDS011;29430;52.924;-2.388;2024-03-08T19:08:18;33.63;;;16.60;;
43803;SDS011;29430;52.924;-2.388;2024-03-08T19:13:11;42.58;;;18.80;;
43803;SDS011;29430;52.924;-2.388;2024-03-08T19:18:06;36.45;;;17.40;;
43803;SDS011;29430;52.924;-2.388;2024-03-08T19:23:03;36.83;;;18.55;;
43803;SDS011;29430;52.924;-2.388;2024-03-08T19:27:57;36.50;;;17.20;;
43803;SDS011;29430;52.924;-2.388;2024-03-08T19:32:51;34.97;;;17.60;;
43803;SDS011;29430;52.924;-2.388;2024-03-08T19:37:43;30.83;;;16.92;;
43803;SDS011;29430;52.924;-2.388;2024-03-08T19:42:35;37.15;;;17.15;;
43803;SDS011;29430;52.924;-2.388;2024-03-08T19:47:27;38.70;;;17.75;;
43803;SDS011;29430;52.924;-2.388;2024-03-08T19:52:20;33.25;;;16.38;;
43803;SDS011;29430;52.924;-2.388;2024-03-08T19:57:13;33.28;;;17.05;;
43803;SDS011;29430;52.924;-2.388;2024-03-08T20:02:05;39.13;;;17.38;;
43803;SDS011;29430;52.924;-2.388;2024-03-08T20:06:57;37.45;;;18.27;;
43803;SDS011;29430;52.924;-2.388;2024-03-08T20:11:49;36.58;;;18.63;;
43803;SDS011;29430;52.924;-2.388;2024-03-08T20:16:41;34.95;;;17.45;;
43803;SDS011;29430;52.924;-2.388;2024-03-08T20:21:34;38.53;;;17.00;;
43803;SDS011;29430;52.924;-2.388;2024-03-08T20:26:25;32.63;;;16.55;;
43803;SDS011;29430;52.924;-2.388;2024-03-08T20:31:17;34.70;;;16.52;;
43803;SDS011;29430;52.924;-2.388;2024-03-08T20:36:09;28.65;;;16.85;;
43803;SDS011;29430;52.924;-2.388;2024-03-08T20:41:03;29.77;;;16.60;;
43803;SDS011;29430;52.924;-2.388;2024-03-08T20:45:59;29.55;;;15.30;;
43803;SDS011;29430;52.924;-2.388;2024-03-08T20:50:56;30.08;;;14.77;;
43803;SDS011;29430;52.924;-2.388;2024-03-08T20:55:47;38.22;;;16.48;;
43803;SDS011;29430;52.924;-2.388;2024-03-08T21:00:41;30.98;;;16.38;;
43803;SDS011;29430;52.924;-2.388;2024-03-08T21:05:34;29.13;;;15.52;;
43803;SDS011;29430;52.924;-2.388;2024-03-08T21:10:27;32.05;;;17.88;;
43803;SDS011;29430;52.924;-2.388;2024-03-08T21:15:22;32.88;;;16.65;;
43803;SDS011;29430;52.924;-2.388;2024-03-08T21:20:14;35.40;;;18.80;;
43803;SDS011;29430;52.924;-2.388;2024-03-08T21:25:08;39.35;;;20.48;;
43803;SDS011;29430;52.924;-2.388;2024-03-08T21:30:01;42.90;;;20.27;;
43803;SDS011;29430;52.924;-2.388;2024-03-08T21:34:53;40.88;;;20.30;;
43803;SDS011;29430;52.924;-2.388;2024-03-08T21:39:46;47.45;;;23.48;;
43803;SDS011;29430;52.924;-2.388;2024-03-08T21:44:38;42.47;;;22.15;;
43803;SDS011;29430;52.924;-2.388;2024-03-08T21:49:30;47.25;;;23.48;;
43803;SDS011;29430;52.924;-2.388;2024-03-08T21:54:22;44.22;;;24.33;;
43803;SDS011;29430;52.924;-2.388;2024-03-08T21:59:14;48.08;;;24.80;;
43803;SDS011;29430;52.924;-2.388;2024-03-08T22:04:08;50.63;;;24.23;;
43803;SDS011;29430;52.924;-2.388;2024-03-08T22:09:00;49.95;;;25.10;;
43803;SDS011;29430;52.924;-2.388;2024-03-08T22:13:51;47.00;;;25.27;;
43803;SDS011;29430;52.924;-2.388;2024-03-08T22:18:43;44.50;;;25.73;;
43803;SDS011;29430;52.924;-2.388;2024-03-08T22:23:36;44.40;;;24.77;;
43803;SDS011;29430;52.924;-2.388;2024-03-08T22:28:29;45.85;;;25.30;;
43803;SDS011;29430;52.924;-2.388;2024-03-08T22:33:22;46.40;;;25.52;;
43803;SDS011;29430;52.924;-2.388;2024-03-08T22:38:16;46.55;;;23.25;;
43803;SDS011;29430;52.924;-2.388;2024-03-08T22:43:09;48.55;;;24.63;;
43803;SDS011;29430;52.924;-2.388;2024-03-08T22:48:02;54.20;;;24.75;;
43803;SDS011;29430;52.924;-2.388;2024-03-08T22:52:55;53.17;;;25.52;;
43803;SDS011;29430;52.924;-2.388;2024-03-08T22:57:47;56.72;;;26.85;;
43803;SDS011;29430;52.924;-2.388;2024-03-08T23:02:43;48.72;;;24.95;;
43803;SDS011;29430;52.924;-2.388;2024-03-08T23:07:35;46.30;;;24.85;;
43803;SDS011;29430;52.924;-2.388;2024-03-08T23:12:26;44.63;;;23.45;;
43803;SDS011;29430;52.924;-2.388;2024-03-08T23:17:18;44.28;;;24.13;;
43803;SDS011;29430;52.924;-2.388;2024-03-08T23:22:10;46.95;;;24.75;;
43803;SDS011;29430;52.924;-2.388;2024-03-08T23:27:03;50.85;;;25.80;;
43803;SDS011;29430;52.924;-2.388;2024-03-08T23:31:55;40.60;;;23.15;;
43803;SDS011;29430;52.924;-2.388;2024-03-08T23:36:47;51.90;;;26.42;;
43803;SDS011;29430;52.924;-2.388;2024-03-08T23:41:40;39.50;;;22.90;;
43803;SDS011;29430;52.924;-2.388;2024-03-08T23:46:34;41.45;;;23.33;;
43803;SDS011;29430;52.924;-2.388;2024-03-08T23:51:31;48.70;;;26.33;;
43803;SDS011;29430;52.924;-2.388;2024-03-08T23:56:24;55.33;;;26.80;;
